sensor_id;sensor_type;location;lat;lon;timestamp;temperature;humidity
69776;DHT22;57049;51.450;-2.516;2023-08-06T00:02:18;12.10;91.20
69776;DHT22;57049;51.450;-2.516;2023-08-06T00:04:44;12.04;91.13
69776;DHT22;57049;51.450;-2.516;2023-08-06T00:07:09;12.05;91.07
69776;DHT22;57049;51.450;-2.516;2023-08-06T00:09:35;12.13;90.87
69776;DHT22;57049;51.450;-2.516;2023-08-06T00:12:00;12.14;90.77
69776;DHT22;57049;51.450;-2.516;2023-08-06T00:14:26;12.13;90.66
69776;DHT22;57049;51.450;-2.516;2023-08-06T00:16:51;12.13;90.79
69776;DHT22;57049;51.450;-2.516;2023-08-06T00:19:17;12.13;90.73
69776;DHT22;57049;51.450;-2.516;2023-08-06T00:21:42;12.05;90.88
69776;DHT22;57049;51.450;-2.516;2023-08-06T00:24:08;12.01;90.85
69776;DHT22;57049;51.450;-2.516;2023-08-06T00:26:33;11.99;90.92
69776;DHT22;57049;51.450;-2.516;2023-08-06T00:28:59;11.94;91.15
69776;DHT22;57049;51.450;-2.516;2023-08-06T00:31:24;11.93;91.26
69776;DHT22;57049;51.450;-2.516;2023-08-06T00:33:49;11.91;91.13
69776;DHT22;57049;51.450;-2.516;2023-08-06T00:36:15;11.95;90.93
69776;DHT22;57049;51.450;-2.516;2023-08-06T00:38:40;11.97;90.82
69776;DHT22;57049;51.450;-2.516;2023-08-06T00:41:06;11.95;90.89
69776;DHT22;57049;51.450;-2.516;2023-08-06T00:43:31;11.95;90.85
69776;DHT22;57049;51.450;-2.516;2023-08-06T00:45:57;11.93;90.90
69776;DHT22;57049;51.450;-2.516;2023-08-06T00:48:22;11.93;90.86
69776;DHT22;57049;51.450;-2.516;2023-08-06T00:50:48;11.84;91.07
69776;DHT22;57049;51.450;-2.516;2023-08-06T00:53:13;11.77;91.32
69776;DHT22;57049;51.450;-2.516;2023-08-06T00:55:39;11.71;91.49
69776;DHT22;57049;51.450;-2.516;2023-08-06T00:58:05;11.77;91.42
69776;DHT22;57049;51.450;-2.516;2023-08-06T01:00:31;11.80;91.50
69776;DHT22;57049;51.450;-2.516;2023-08-06T01:02:56;11.77;91.38
69776;DHT22;57049;51.450;-2.516;2023-08-06T01:05:22;11.76;91.54
69776;DHT22;57049;51.450;-2.516;2023-08-06T01:08:09;11.78;91.40
69776;DHT22;57049;51.450;-2.516;2023-08-06T01:10:44;11.76;91.44
69776;DHT22;57049;51.450;-2.516;2023-08-06T01:13:45;11.71;91.53
69776;DHT22;57049;51.450;-2.516;2023-08-06T01:16:15;11.73;91.58
69776;DHT22;57049;51.450;-2.516;2023-08-06T01:18:41;11.71;91.55
69776;DHT22;57049;51.450;-2.516;2023-08-06T01:21:08;11.70;91.73
69776;DHT22;57049;51.450;-2.516;2023-08-06T01:23:34;11.67;91.75
69776;DHT22;57049;51.450;-2.516;2023-08-06T01:31:16;11.69;91.89
69776;DHT22;57049;51.450;-2.516;2023-08-06T01:33:45;11.62;92.05
69776;DHT22;57049;51.450;-2.516;2023-08-06T01:36:15;11.62;92.22
69776;DHT22;57049;51.450;-2.516;2023-08-06T01:38:40;11.59;92.22
69776;DHT22;57049;51.450;-2.516;2023-08-06T01:41:06;11.57;92.23
69776;DHT22;57049;51.450;-2.516;2023-08-06T01:43:31;11.54;92.44
69776;DHT22;57049;51.450;-2.516;2023-08-06T01:45:57;11.56;92.63
69776;DHT22;57049;51.450;-2.516;2023-08-06T01:48:22;11.49;92.74
69776;DHT22;57049;51.450;-2.516;2023-08-06T01:50:48;11.46;92.81
69776;DHT22;57049;51.450;-2.516;2023-08-06T01:53:13;11.44;93.11
69776;DHT22;57049;51.450;-2.516;2023-08-06T01:55:39;11.42;93.09
69776;DHT22;57049;51.450;-2.516;2023-08-06T01:58:04;11.35;93.18
69776;DHT22;57049;51.450;-2.516;2023-08-06T02:00:29;11.33;93.42
69776;DHT22;57049;51.450;-2.516;2023-08-06T02:02:55;11.35;93.58
69776;DHT22;57049;51.450;-2.516;2023-08-06T02:05:20;11.35;93.69
69776;DHT22;57049;51.450;-2.516;2023-08-06T02:07:46;11.40;93.67
69776;DHT22;57049;51.450;-2.516;2023-08-06T02:10:11;11.35;93.76
69776;DHT22;57049;51.450;-2.516;2023-08-06T02:12:36;11.33;93.71
69776;DHT22;57049;51.450;-2.516;2023-08-06T02:15:03;11.32;93.86
69776;DHT22;57049;51.450;-2.516;2023-08-06T02:17:28;11.23;94.02
69776;DHT22;57049;51.450;-2.516;2023-08-06T02:19:54;11.23;94.14
69776;DHT22;57049;51.450;-2.516;2023-08-06T02:22:19;11.18;94.12
69776;DHT22;57049;51.450;-2.516;2023-08-06T02:24:45;11.12;94.26
69776;DHT22;57049;51.450;-2.516;2023-08-06T02:27:10;11.06;94.37
69776;DHT22;57049;51.450;-2.516;2023-08-06T02:29:35;10.99;94.70
69776;DHT22;57049;51.450;-2.516;2023-08-06T02:32:01;10.92;94.76
69776;DHT22;57049;51.450;-2.516;2023-08-06T02:34:27;10.79;94.89
69776;DHT22;57049;51.450;-2.516;2023-08-06T02:36:53;10.76;95.04
69776;DHT22;57049;51.450;-2.516;2023-08-06T02:39:19;10.71;95.44
69776;DHT22;57049;51.450;-2.516;2023-08-06T02:41:44;10.68;95.53
69776;DHT22;57049;51.450;-2.516;2023-08-06T02:44:10;10.69;95.76
69776;DHT22;57049;51.450;-2.516;2023-08-06T02:46:35;10.68;96.17
69776;DHT22;57049;51.450;-2.516;2023-08-06T02:49:00;10.69;96.05
69776;DHT22;57049;51.450;-2.516;2023-08-06T02:51:26;10.74;95.89
69776;DHT22;57049;51.450;-2.516;2023-08-06T02:53:51;10.79;95.90
69776;DHT22;57049;51.450;-2.516;2023-08-06T02:56:17;10.79;95.79
69776;DHT22;57049;51.450;-2.516;2023-08-06T02:58:42;10.81;95.93
69776;DHT22;57049;51.450;-2.516;2023-08-06T03:01:07;10.74;95.83
69776;DHT22;57049;51.450;-2.516;2023-08-06T03:03:33;10.71;95.87
69776;DHT22;57049;51.450;-2.516;2023-08-06T03:06:00;10.64;95.75
69776;DHT22;57049;51.450;-2.516;2023-08-06T03:08:25;10.62;95.88
69776;DHT22;57049;51.450;-2.516;2023-08-06T03:10:51;10.52;96.09
69776;DHT22;57049;51.450;-2.516;2023-08-06T03:13:17;10.44;95.99
69776;DHT22;57049;51.450;-2.516;2023-08-06T03:15:43;10.36;96.33
69776;DHT22;57049;51.450;-2.516;2023-08-06T03:18:08;10.30;96.35
69776;DHT22;57049;51.450;-2.516;2023-08-06T03:20:34;10.23;96.66
69776;DHT22;57049;51.450;-2.516;2023-08-06T03:22:59;10.17;96.83
69776;DHT22;57049;51.450;-2.516;2023-08-06T03:25:25;10.17;96.85
69776;DHT22;57049;51.450;-2.516;2023-08-06T03:27:50;10.16;96.90
69776;DHT22;57049;51.450;-2.516;2023-08-06T03:30:16;10.16;97.01
69776;DHT22;57049;51.450;-2.516;2023-08-06T03:32:41;10.13;96.89
69776;DHT22;57049;51.450;-2.516;2023-08-06T03:35:07;10.06;96.95
69776;DHT22;57049;51.450;-2.516;2023-08-06T03:37:32;9.97;97.04
69776;DHT22;57049;51.450;-2.516;2023-08-06T03:39:58;9.92;97.18
69776;DHT22;57049;51.450;-2.516;2023-08-06T03:42:23;9.87;97.33
69776;DHT22;57049;51.450;-2.516;2023-08-06T03:44:48;9.79;97.61
69776;DHT22;57049;51.450;-2.516;2023-08-06T03:47:14;9.79;97.50
69776;DHT22;57049;51.450;-2.516;2023-08-06T03:49:39;9.89;97.56
69776;DHT22;57049;51.450;-2.516;2023-08-06T03:52:05;9.93;97.50
69776;DHT22;57049;51.450;-2.516;2023-08-06T03:54:31;9.96;97.46
69776;DHT22;57049;51.450;-2.516;2023-08-06T03:56:56;9.96;97.38
69776;DHT22;57049;51.450;-2.516;2023-08-06T03:59:22;9.92;97.36
69776;DHT22;57049;51.450;-2.516;2023-08-06T04:01:47;9.89;97.43
69776;DHT22;57049;51.450;-2.516;2023-08-06T04:04:13;9.89;97.43
69776;DHT22;57049;51.450;-2.516;2023-08-06T04:06:38;9.83;97.55
69776;DHT22;57049;51.450;-2.516;2023-08-06T04:09:04;9.79;97.61
69776;DHT22;57049;51.450;-2.516;2023-08-06T04:11:29;9.75;97.78
69776;DHT22;57049;51.450;-2.516;2023-08-06T04:13:54;9.85;97.70
69776;DHT22;57049;51.450;-2.516;2023-08-06T04:16:21;9.82;97.52
69776;DHT22;57049;51.450;-2.516;2023-08-06T04:18:46;9.75;97.41
69776;DHT22;57049;51.450;-2.516;2023-08-06T04:21:12;9.68;97.55
69776;DHT22;57049;51.450;-2.516;2023-08-06T04:23:37;9.59;97.70
69776;DHT22;57049;51.450;-2.516;2023-08-06T04:26:03;9.56;97.72
69776;DHT22;57049;51.450;-2.516;2023-08-06T04:28:28;9.52;97.83
69776;DHT22;57049;51.450;-2.516;2023-08-06T04:30:54;9.46;97.99
69776;DHT22;57049;51.450;-2.516;2023-08-06T04:33:22;9.41;97.98
69776;DHT22;57049;51.450;-2.516;2023-08-06T04:35:54;9.36;97.99
69776;DHT22;57049;51.450;-2.516;2023-08-06T04:38:19;9.35;98.09
69776;DHT22;57049;51.450;-2.516;2023-08-06T04:40:45;9.34;98.22
69776;DHT22;57049;51.450;-2.516;2023-08-06T04:43:10;9.31;98.17
69776;DHT22;57049;51.450;-2.516;2023-08-06T04:45:36;9.32;98.33
69776;DHT22;57049;51.450;-2.516;2023-08-06T04:48:01;9.29;98.42
69776;DHT22;57049;51.450;-2.516;2023-08-06T04:50:26;9.28;98.42
69776;DHT22;57049;51.450;-2.516;2023-08-06T04:52:52;9.28;98.48
69776;DHT22;57049;51.450;-2.516;2023-08-06T04:55:17;9.24;98.47
69776;DHT22;57049;51.450;-2.516;2023-08-06T04:57:43;9.31;98.56
69776;DHT22;57049;51.450;-2.516;2023-08-06T05:00:08;9.34;98.59
69776;DHT22;57049;51.450;-2.516;2023-08-06T05:02:34;9.29;98.56
69776;DHT22;57049;51.450;-2.516;2023-08-06T05:04:59;9.35;98.55
69776;DHT22;57049;51.450;-2.516;2023-08-06T05:07:25;9.35;98.48
69776;DHT22;57049;51.450;-2.516;2023-08-06T05:09:50;9.36;98.50
69776;DHT22;57049;51.450;-2.516;2023-08-06T05:12:16;9.36;98.47
69776;DHT22;57049;51.450;-2.516;2023-08-06T05:14:41;9.41;98.39
69776;DHT22;57049;51.450;-2.516;2023-08-06T05:17:07;9.42;98.41
69776;DHT22;57049;51.450;-2.516;2023-08-06T05:19:32;9.46;98.42
69776;DHT22;57049;51.450;-2.516;2023-08-06T05:21:58;9.55;98.47
69776;DHT22;57049;51.450;-2.516;2023-08-06T05:24:23;9.69;98.50
69776;DHT22;57049;51.450;-2.516;2023-08-06T05:26:49;9.82;98.47
69776;DHT22;57049;51.450;-2.516;2023-08-06T05:29:15;9.92;98.39
69776;DHT22;57049;51.450;-2.516;2023-08-06T05:31:41;10.04;98.43
69776;DHT22;57049;51.450;-2.516;2023-08-06T05:34:07;10.16;98.25
69776;DHT22;57049;51.450;-2.516;2023-08-06T05:36:32;10.27;98.15
69776;DHT22;57049;51.450;-2.516;2023-08-06T05:38:58;10.37;98.19
69776;DHT22;57049;51.450;-2.516;2023-08-06T05:41:23;10.45;97.89
69776;DHT22;57049;51.450;-2.516;2023-08-06T05:43:49;10.47;97.87
69776;DHT22;57049;51.450;-2.516;2023-08-06T05:46:14;10.50;97.70
69776;DHT22;57049;51.450;-2.516;2023-08-06T05:48:40;10.60;97.76
69776;DHT22;57049;51.450;-2.516;2023-08-06T05:51:05;10.75;97.68
69776;DHT22;57049;51.450;-2.516;2023-08-06T05:53:31;10.94;97.76
69776;DHT22;57049;51.450;-2.516;2023-08-06T05:55:56;11.03;97.55
69776;DHT22;57049;51.450;-2.516;2023-08-06T05:58:22;11.13;97.58
69776;DHT22;57049;51.450;-2.516;2023-08-06T06:00:49;11.27;97.51
69776;DHT22;57049;51.450;-2.516;2023-08-06T06:03:14;11.43;97.33
69776;DHT22;57049;51.450;-2.516;2023-08-06T06:05:40;11.49;97.27
69776;DHT22;57049;51.450;-2.516;2023-08-06T06:08:05;11.52;97.16
69776;DHT22;57049;51.450;-2.516;2023-08-06T06:10:31;11.54;96.92
69776;DHT22;57049;51.450;-2.516;2023-08-06T06:12:56;11.62;96.69
69776;DHT22;57049;51.450;-2.516;2023-08-06T06:15:22;11.64;96.52
69776;DHT22;57049;51.450;-2.516;2023-08-06T06:17:47;11.74;96.60
69776;DHT22;57049;51.450;-2.516;2023-08-06T06:20:13;11.78;96.55
69776;DHT22;57049;51.450;-2.516;2023-08-06T06:22:38;11.83;96.37
69776;DHT22;57049;51.450;-2.516;2023-08-06T06:25:04;12.44;96.27
69776;DHT22;57049;51.450;-2.516;2023-08-06T06:27:30;14.26;94.63
69776;DHT22;57049;51.450;-2.516;2023-08-06T06:29:55;15.00;91.83
69776;DHT22;57049;51.450;-2.516;2023-08-06T06:32:21;15.69;88.17
69776;DHT22;57049;51.450;-2.516;2023-08-06T06:34:47;15.97;85.07
69776;DHT22;57049;51.450;-2.516;2023-08-06T06:37:12;15.56;83.77
69776;DHT22;57049;51.450;-2.516;2023-08-06T06:39:38;16.91;83.06
69776;DHT22;57049;51.450;-2.516;2023-08-06T06:42:03;17.65;78.93
69776;DHT22;57049;51.450;-2.516;2023-08-06T06:44:29;17.53;77.22
69776;DHT22;57049;51.450;-2.516;2023-08-06T06:46:54;17.50;77.08
69776;DHT22;57049;51.450;-2.516;2023-08-06T06:49:20;17.79;77.28
69776;DHT22;57049;51.450;-2.516;2023-08-06T06:51:45;18.52;76.64
69776;DHT22;57049;51.450;-2.516;2023-08-06T06:54:11;18.01;76.40
69776;DHT22;57049;51.450;-2.516;2023-08-06T06:56:37;17.57;77.35
69776;DHT22;57049;51.450;-2.516;2023-08-06T06:59:02;17.20;77.59
69776;DHT22;57049;51.450;-2.516;2023-08-06T07:01:28;16.67;79.55
69776;DHT22;57049;51.450;-2.516;2023-08-06T07:03:53;16.18;80.05
69776;DHT22;57049;51.450;-2.516;2023-08-06T07:06:18;15.45;81.96
69776;DHT22;57049;51.450;-2.516;2023-08-06T07:08:45;15.51;81.52
69776;DHT22;57049;51.450;-2.516;2023-08-06T07:11:10;15.44;82.21
69776;DHT22;57049;51.450;-2.516;2023-08-06T07:13:36;15.41;82.60
69776;DHT22;57049;51.450;-2.516;2023-08-06T07:16:01;15.23;83.39
69776;DHT22;57049;51.450;-2.516;2023-08-06T07:18:27;15.25;83.44
69776;DHT22;57049;51.450;-2.516;2023-08-06T07:20:54;15.01;83.92
69776;DHT22;57049;51.450;-2.516;2023-08-06T07:23:24;15.24;83.76
69776;DHT22;57049;51.450;-2.516;2023-08-06T07:25:50;15.49;82.51
69776;DHT22;57049;51.450;-2.516;2023-08-06T07:28:16;16.02;81.99
69776;DHT22;57049;51.450;-2.516;2023-08-06T07:30:43;16.68;79.36
69776;DHT22;57049;51.450;-2.516;2023-08-06T07:33:08;17.63;77.59
69776;DHT22;57049;51.450;-2.516;2023-08-06T07:35:35;18.28;74.58
69776;DHT22;57049;51.450;-2.516;2023-08-06T07:38:02;19.63;72.54
69776;DHT22;57049;51.450;-2.516;2023-08-06T07:40:27;19.79;70.96
69776;DHT22;57049;51.450;-2.516;2023-08-06T07:42:53;20.91;65.87
69776;DHT22;57049;51.450;-2.516;2023-08-06T07:45:18;21.27;64.98
69776;DHT22;57049;51.450;-2.516;2023-08-06T07:47:44;21.79;62.73
69776;DHT22;57049;51.450;-2.516;2023-08-06T07:50:09;23.61;62.26
69776;DHT22;57049;51.450;-2.516;2023-08-06T07:52:35;22.32;60.71
69776;DHT22;57049;51.450;-2.516;2023-08-06T07:55:01;21.61;62.85
69776;DHT22;57049;51.450;-2.516;2023-08-06T07:57:30;22.13;62.89
69776;DHT22;57049;51.450;-2.516;2023-08-06T07:59:56;21.17;63.76
69776;DHT22;57049;51.450;-2.516;2023-08-06T08:02:22;20.07;65.46
69776;DHT22;57049;51.450;-2.516;2023-08-06T08:04:47;19.00;68.59
69776;DHT22;57049;51.450;-2.516;2023-08-06T08:07:13;17.56;72.34
69776;DHT22;57049;51.450;-2.516;2023-08-06T08:09:38;18.37;71.80
69776;DHT22;57049;51.450;-2.516;2023-08-06T08:12:04;19.63;68.40
69776;DHT22;57049;51.450;-2.516;2023-08-06T08:14:30;19.99;65.35
69776;DHT22;57049;51.450;-2.516;2023-08-06T08:17:01;19.12;67.57
69776;DHT22;57049;51.450;-2.516;2023-08-06T08:19:27;19.78;67.22
69776;DHT22;57049;51.450;-2.516;2023-08-06T08:21:53;20.50;65.83
69776;DHT22;57049;51.450;-2.516;2023-08-06T08:24:20;22.44;60.14
69776;DHT22;57049;51.450;-2.516;2023-08-06T08:26:45;22.09;60.67
69776;DHT22;57049;51.450;-2.516;2023-08-06T08:29:11;22.53;58.82
69776;DHT22;57049;51.450;-2.516;2023-08-06T08:31:36;22.60;57.63
69776;DHT22;57049;51.450;-2.516;2023-08-06T08:34:05;22.80;57.52
69776;DHT22;57049;51.450;-2.516;2023-08-06T08:36:30;22.97;58.90
69776;DHT22;57049;51.450;-2.516;2023-08-06T08:38:56;22.86;57.51
69776;DHT22;57049;51.450;-2.516;2023-08-06T08:41:22;22.95;57.61
69776;DHT22;57049;51.450;-2.516;2023-08-06T08:43:50;21.32;60.40
69776;DHT22;57049;51.450;-2.516;2023-08-06T08:46:19;21.35;60.56
69776;DHT22;57049;51.450;-2.516;2023-08-06T08:48:44;20.65;63.71
69776;DHT22;57049;51.450;-2.516;2023-08-06T08:51:11;19.05;67.10
69776;DHT22;57049;51.450;-2.516;2023-08-06T08:53:37;19.77;65.42
69776;DHT22;57049;51.450;-2.516;2023-08-06T08:56:05;19.37;66.42
69776;DHT22;57049;51.450;-2.516;2023-08-06T08:58:32;18.93;67.92
69776;DHT22;57049;51.450;-2.516;2023-08-06T09:00:58;18.91;68.73
69776;DHT22;57049;51.450;-2.516;2023-08-06T09:03:24;18.68;70.00
69776;DHT22;57049;51.450;-2.516;2023-08-06T09:05:53;18.35;69.49
69776;DHT22;57049;51.450;-2.516;2023-08-06T09:08:26;17.83;72.04
69776;DHT22;57049;51.450;-2.516;2023-08-06T09:10:53;17.86;73.65
69776;DHT22;57049;51.450;-2.516;2023-08-06T09:13:18;17.36;74.48
69776;DHT22;57049;51.450;-2.516;2023-08-06T09:15:45;17.36;74.78
69776;DHT22;57049;51.450;-2.516;2023-08-06T09:18:12;17.26;75.19
69776;DHT22;57049;51.450;-2.516;2023-08-06T09:20:38;17.39;74.61
69776;DHT22;57049;51.450;-2.516;2023-08-06T09:23:10;17.47;75.07
69776;DHT22;57049;51.450;-2.516;2023-08-06T09:25:39;17.80;73.95
69776;DHT22;57049;51.450;-2.516;2023-08-06T09:28:06;17.65;74.04
69776;DHT22;57049;51.450;-2.516;2023-08-06T09:30:32;17.59;76.21
69776;DHT22;57049;51.450;-2.516;2023-08-06T09:32:58;16.81;80.72
69776;DHT22;57049;51.450;-2.516;2023-08-06T09:35:24;16.31;83.37
69776;DHT22;57049;51.450;-2.516;2023-08-06T09:37:49;15.97;85.40
69776;DHT22;57049;51.450;-2.516;2023-08-06T09:40:30;16.14;85.98
69776;DHT22;57049;51.450;-2.516;2023-08-06T09:42:57;16.28;86.00
69776;DHT22;57049;51.450;-2.516;2023-08-06T09:45:31;16.50;85.81
69776;DHT22;57049;51.450;-2.516;2023-08-06T09:47:58;17.07;83.81
69776;DHT22;57049;51.450;-2.516;2023-08-06T09:50:28;17.39;83.58
69776;DHT22;57049;51.450;-2.516;2023-08-06T09:52:56;17.70;81.60
69776;DHT22;57049;51.450;-2.516;2023-08-06T09:55:21;17.45;82.17
69776;DHT22;57049;51.450;-2.516;2023-08-06T09:57:49;16.99;81.02
69776;DHT22;57049;51.450;-2.516;2023-08-06T10:00:15;17.25;81.47
69776;DHT22;57049;51.450;-2.516;2023-08-06T10:02:42;17.38;81.72
69776;DHT22;57049;51.450;-2.516;2023-08-06T10:05:08;17.25;80.98
69776;DHT22;57049;51.450;-2.516;2023-08-06T10:07:34;17.30;81.26
69776;DHT22;57049;51.450;-2.516;2023-08-06T10:10:00;17.46;82.18
69776;DHT22;57049;51.450;-2.516;2023-08-06T10:12:32;17.36;81.67
69776;DHT22;57049;51.450;-2.516;2023-08-06T10:15:00;17.25;82.58
69776;DHT22;57049;51.450;-2.516;2023-08-06T10:17:31;17.14;82.48
69776;DHT22;57049;51.450;-2.516;2023-08-06T10:19:58;17.04;80.34
69776;DHT22;57049;51.450;-2.516;2023-08-06T10:22:24;17.26;81.45
69776;DHT22;57049;51.450;-2.516;2023-08-06T10:24:55;17.39;79.53
69776;DHT22;57049;51.450;-2.516;2023-08-06T10:29:47;17.86;80.40
69776;DHT22;57049;51.450;-2.516;2023-08-06T10:32:14;18.05;79.10
69776;DHT22;57049;51.450;-2.516;2023-08-06T10:34:55;18.15;76.58
69776;DHT22;57049;51.450;-2.516;2023-08-06T10:37:30;18.31;77.52
69776;DHT22;57049;51.450;-2.516;2023-08-06T10:39:59;18.41;74.69
69776;DHT22;57049;51.450;-2.516;2023-08-06T10:42:29;18.64;75.82
69776;DHT22;57049;51.450;-2.516;2023-08-06T10:45:14;18.51;74.95
69776;DHT22;57049;51.450;-2.516;2023-08-06T10:47:40;18.98;75.94
69776;DHT22;57049;51.450;-2.516;2023-08-06T10:50:07;19.19;73.22
69776;DHT22;57049;51.450;-2.516;2023-08-06T10:52:34;19.07;71.62
69776;DHT22;57049;51.450;-2.516;2023-08-06T10:54:59;19.00;73.29
69776;DHT22;57049;51.450;-2.516;2023-08-06T10:57:25;19.22;71.72
69776;DHT22;57049;51.450;-2.516;2023-08-06T10:59:50;19.30;70.71
69776;DHT22;57049;51.450;-2.516;2023-08-06T11:02:16;19.20;72.03
69776;DHT22;57049;51.450;-2.516;2023-08-06T11:04:42;19.19;70.70
69776;DHT22;57049;51.450;-2.516;2023-08-06T11:07:07;18.95;72.70
69776;DHT22;57049;51.450;-2.516;2023-08-06T11:09:33;19.30;72.25
69776;DHT22;57049;51.450;-2.516;2023-08-06T11:11:58;19.57;70.07
69776;DHT22;57049;51.450;-2.516;2023-08-06T11:14:24;19.88;70.00
69776;DHT22;57049;51.450;-2.516;2023-08-06T11:16:50;20.32;70.30
69776;DHT22;57049;51.450;-2.516;2023-08-06T11:19:16;20.42;66.92
69776;DHT22;57049;51.450;-2.516;2023-08-06T11:21:42;20.30;68.06
69776;DHT22;57049;51.450;-2.516;2023-08-06T11:24:12;20.48;68.50
69776;DHT22;57049;51.450;-2.516;2023-08-06T11:26:38;20.60;68.73
69776;DHT22;57049;51.450;-2.516;2023-08-06T11:29:05;19.87;67.86
69776;DHT22;57049;51.450;-2.516;2023-08-06T11:31:31;19.40;71.51
69776;DHT22;57049;51.450;-2.516;2023-08-06T11:33:56;18.93;71.47
69776;DHT22;57049;51.450;-2.516;2023-08-06T11:36:48;18.62;73.68
69776;DHT22;57049;51.450;-2.516;2023-08-06T11:39:13;18.54;73.20
69776;DHT22;57049;51.450;-2.516;2023-08-06T11:41:39;18.72;73.25
69776;DHT22;57049;51.450;-2.516;2023-08-06T11:44:05;19.17;75.59
69776;DHT22;57049;51.450;-2.516;2023-08-06T11:46:53;19.44;71.87
69776;DHT22;57049;51.450;-2.516;2023-08-06T11:49:21;19.61;70.65
69776;DHT22;57049;51.450;-2.516;2023-08-06T11:51:47;19.05;69.37
69776;DHT22;57049;51.450;-2.516;2023-08-06T11:54:13;19.02;69.61
69776;DHT22;57049;51.450;-2.516;2023-08-06T11:56:38;19.06;66.63
69776;DHT22;57049;51.450;-2.516;2023-08-06T11:59:04;19.09;67.98
69776;DHT22;57049;51.450;-2.516;2023-08-06T12:01:30;19.24;70.26
69776;DHT22;57049;51.450;-2.516;2023-08-06T12:03:59;19.44;68.80
69776;DHT22;57049;51.450;-2.516;2023-08-06T12:06:28;18.99;68.49
69776;DHT22;57049;51.450;-2.516;2023-08-06T12:08:53;18.79;69.92
69776;DHT22;57049;51.450;-2.516;2023-08-06T12:11:21;19.06;71.04
69776;DHT22;57049;51.450;-2.516;2023-08-06T12:13:51;18.82;70.18
69776;DHT22;57049;51.450;-2.516;2023-08-06T12:16:16;18.82;70.04
69776;DHT22;57049;51.450;-2.516;2023-08-06T12:18:44;19.00;70.80
69776;DHT22;57049;51.450;-2.516;2023-08-06T12:21:09;18.98;70.20
69776;DHT22;57049;51.450;-2.516;2023-08-06T12:23:36;19.17;70.64
69776;DHT22;57049;51.450;-2.516;2023-08-06T12:26:02;19.41;70.53
69776;DHT22;57049;51.450;-2.516;2023-08-06T12:28:27;19.63;71.04
69776;DHT22;57049;51.450;-2.516;2023-08-06T12:30:53;19.53;67.11
69776;DHT22;57049;51.450;-2.516;2023-08-06T12:33:20;19.63;69.12
69776;DHT22;57049;51.450;-2.516;2023-08-06T12:35:46;19.46;67.31
69776;DHT22;57049;51.450;-2.516;2023-08-06T12:38:11;19.26;67.21
69776;DHT22;57049;51.450;-2.516;2023-08-06T12:40:38;19.57;66.53
69776;DHT22;57049;51.450;-2.516;2023-08-06T12:43:04;19.53;66.52
69776;DHT22;57049;51.450;-2.516;2023-08-06T12:45:29;19.38;66.59
69776;DHT22;57049;51.450;-2.516;2023-08-06T12:47:55;19.54;67.99
69776;DHT22;57049;51.450;-2.516;2023-08-06T12:50:20;20.01;65.71
69776;DHT22;57049;51.450;-2.516;2023-08-06T12:52:46;20.39;65.02
69776;DHT22;57049;51.450;-2.516;2023-08-06T12:55:11;20.12;63.55
69776;DHT22;57049;51.450;-2.516;2023-08-06T12:57:37;20.04;63.02
69776;DHT22;57049;51.450;-2.516;2023-08-06T13:00:02;19.77;63.47
69776;DHT22;57049;51.450;-2.516;2023-08-06T13:02:28;19.54;67.35
69776;DHT22;57049;51.450;-2.516;2023-08-06T13:04:55;19.19;67.37
69776;DHT22;57049;51.450;-2.516;2023-08-06T13:07:20;19.27;68.38
69776;DHT22;57049;51.450;-2.516;2023-08-06T13:09:46;19.65;68.61
69776;DHT22;57049;51.450;-2.516;2023-08-06T13:12:11;19.79;68.32
69776;DHT22;57049;51.450;-2.516;2023-08-06T13:14:37;19.71;65.22
69776;DHT22;57049;51.450;-2.516;2023-08-06T13:17:02;19.51;64.36
69776;DHT22;57049;51.450;-2.516;2023-08-06T13:19:31;19.41;64.04
69776;DHT22;57049;51.450;-2.516;2023-08-06T13:22:02;19.60;63.86
69776;DHT22;57049;51.450;-2.516;2023-08-06T13:24:29;19.49;61.56
69776;DHT22;57049;51.450;-2.516;2023-08-06T13:26:55;19.28;61.06
69776;DHT22;57049;51.450;-2.516;2023-08-06T13:29:20;19.24;62.87
69776;DHT22;57049;51.450;-2.516;2023-08-06T13:31:45;19.38;65.33
69776;DHT22;57049;51.450;-2.516;2023-08-06T13:34:11;19.73;67.90
69776;DHT22;57049;51.450;-2.516;2023-08-06T13:36:36;19.89;67.93
69776;DHT22;57049;51.450;-2.516;2023-08-06T13:39:02;20.08;69.03
69776;DHT22;57049;51.450;-2.516;2023-08-06T13:41:28;20.40;68.25
69776;DHT22;57049;51.450;-2.516;2023-08-06T13:43:54;20.62;68.50
69776;DHT22;57049;51.450;-2.516;2023-08-06T13:46:19;20.55;65.72
69776;DHT22;57049;51.450;-2.516;2023-08-06T13:48:47;19.82;66.02
69776;DHT22;57049;51.450;-2.516;2023-08-06T13:51:16;19.27;69.90
69776;DHT22;57049;51.450;-2.516;2023-08-06T13:53:42;19.02;75.21
69776;DHT22;57049;51.450;-2.516;2023-08-06T13:56:08;18.44;76.98
69776;DHT22;57049;51.450;-2.516;2023-08-06T13:58:37;18.35;77.51
69776;DHT22;57049;51.450;-2.516;2023-08-06T14:01:03;18.13;78.28
69776;DHT22;57049;51.450;-2.516;2023-08-06T14:03:28;18.22;79.95
69776;DHT22;57049;51.450;-2.516;2023-08-06T14:05:54;18.30;80.40
69776;DHT22;57049;51.450;-2.516;2023-08-06T14:08:23;18.69;81.92
69776;DHT22;57049;51.450;-2.516;2023-08-06T14:10:50;18.88;81.50
69776;DHT22;57049;51.450;-2.516;2023-08-06T14:13:15;18.72;79.15
69776;DHT22;57049;51.450;-2.516;2023-08-06T14:15:41;18.62;77.37
69776;DHT22;57049;51.450;-2.516;2023-08-06T14:18:07;18.76;77.40
69776;DHT22;57049;51.450;-2.516;2023-08-06T14:20:34;18.81;76.86
69776;DHT22;57049;51.450;-2.516;2023-08-06T14:22:59;19.07;80.62
69776;DHT22;57049;51.450;-2.516;2023-08-06T14:25:25;19.37;80.38
69776;DHT22;57049;51.450;-2.516;2023-08-06T14:27:50;19.56;78.77
69776;DHT22;57049;51.450;-2.516;2023-08-06T14:30:16;19.54;78.00
69776;DHT22;57049;51.450;-2.516;2023-08-06T14:32:41;19.37;76.38
69776;DHT22;57049;51.450;-2.516;2023-08-06T14:35:07;19.19;78.03
69776;DHT22;57049;51.450;-2.516;2023-08-06T14:37:32;19.03;77.13
69776;DHT22;57049;51.450;-2.516;2023-08-06T14:39:58;18.89;77.87
69776;DHT22;57049;51.450;-2.516;2023-08-06T14:42:23;18.93;79.42
69776;DHT22;57049;51.450;-2.516;2023-08-06T14:44:49;18.98;78.39
69776;DHT22;57049;51.450;-2.516;2023-08-06T14:47:15;19.40;79.11
69776;DHT22;57049;51.450;-2.516;2023-08-06T14:49:40;19.78;77.98
69776;DHT22;57049;51.450;-2.516;2023-08-06T14:52:06;20.01;77.48
69776;DHT22;57049;51.450;-2.516;2023-08-06T14:54:31;20.39;76.96
69776;DHT22;57049;51.450;-2.516;2023-08-06T14:56:57;20.22;74.69
69776;DHT22;57049;51.450;-2.516;2023-08-06T14:59:23;19.88;72.61
69776;DHT22;57049;51.450;-2.516;2023-08-06T15:01:48;19.67;74.23
69776;DHT22;57049;51.450;-2.516;2023-08-06T15:04:13;19.56;75.60
69776;DHT22;57049;51.450;-2.516;2023-08-06T15:06:39;19.43;74.04
69776;DHT22;57049;51.450;-2.516;2023-08-06T15:09:04;19.44;75.34
69776;DHT22;57049;51.450;-2.516;2023-08-06T15:11:30;19.50;70.22
69776;DHT22;57049;51.450;-2.516;2023-08-06T15:13:55;19.53;70.72
69776;DHT22;57049;51.450;-2.516;2023-08-06T15:16:21;19.43;69.16
69776;DHT22;57049;51.450;-2.516;2023-08-06T15:18:46;19.64;70.01
69776;DHT22;57049;51.450;-2.516;2023-08-06T15:21:12;19.56;70.69